Accueil
METAR-TAF:

METAR-TAF

Aéroports :

Alva Regional Airport

Alva, Oklahoma, États-Unis

latitude: 36-46-23N, longitude: 098-40-12W, altitude: 449 m

Observation

Le bulletin a été fait il y a 24 minutes, à 02:15 UTC
Vent 7 kt de est/nord-est
Température 25°C
Humidité 65%
Pression 1018 hPa
Visibilité: 16.1 km
Ciel clair

METAR: KAVK 220215Z AUTO 07007KT 10SM CLR 25/18 A3006 RMK AO2

Heure: 21:39 (02:39 UTC)


TAF: absent

Observations et prévisions météorologiques de plus de 4000 aéroports (messages METAR et TAF).

Les stations disponibles sont représentées par des disques jaunes et rouges sur la carte.

Passer la souris dessus pour voir le nom de la station.

Cliquer dessus pour voir les observations et prévisions météorologiques.

Pour changer de carte: cliquez sur les boutons verts avec une croix noire pour zoomer, sur le bouton vert avec un tiret pour effectuer un zoom arrière, ou sur les flèches vertes pour les cartes adjacentes.


METAR-TAF: